Time;durP1;ratioP1;P1;durP2;ratioP2;P2;SDS_P1;SDS_P2;PMS_P1;PMS_P2;Temp;Humidity;BMP_temperature;BMP_pressure;BME280_temperature;BME280_humidity;BME280_pressure;Samples;Min_cycle;Max_cycle;Signal;HPM_P1;HPM_P2
2022/07/26 00:01:32;;;;;;;25.97;21.00;;;;;;;;;;5034507;28;20433;-88
2022/07/26 00:04:00;;;;;;;21.03;19.77;;;;;;;;;;5034765;28;20449;-88
2022/07/26 00:06:28;;;;;;;22.07;20.23;;;;;;;;;;5034574;28;20484;-88
2022/07/26 00:08:56;;;;;;;21.03;19.77;;;;;;;;;;5034214;28;20423;-89
2022/07/26 00:11:24;;;;;;;20.93;19.50;;;;;;;;;;5034541;28;20413;-88
2022/07/26 00:13:52;;;;;;;21.33;19.63;;;;;;;;;;5034429;28;20428;-88
2022/07/26 00:16:19;;;;;;;21.03;19.17;;;;;;;;;;5034066;28;20433;-89
2022/07/26 00:18:47;;;;;;;21.03;19.70;;;;;;;;;;5033221;28;20501;-88
2022/07/26 00:21:14;;;;;;;21.03;19.73;;;;;;;;;;5033134;28;20488;-89
2022/07/26 00:23:43;;;;;;;20.23;19.13;;;;;;;;;;5033463;28;20432;-88
2022/07/26 00:26:11;;;;;;;21.77;19.97;;;;;;;;;;5032989;28;20533;-88
2022/07/26 00:28:40;;;;;;;21.57;20.30;;;;;;;;;;5034549;28;20414;-89
2022/07/26 00:31:07;;;;;;;20.87;19.63;;;;;;;;;;5034302;28;20486;-89
2022/07/26 00:33:35;;;;;;;21.40;19.97;;;;;;;;;;5034206;28;20427;-89
2022/07/26 00:36:02;;;;;;;22.40;20.60;;;;;;;;;;5034229;28;20482;-89
2022/07/26 00:38:30;;;;;;;21.23;19.90;;;;;;;;;;5034182;28;20461;-89
2022/07/26 00:40:58;;;;;;;20.10;18.90;;;;;;;;;;5034312;28;20496;-87
2022/07/26 00:43:26;;;;;;;22.23;20.40;;;;;;;;;;5034090;28;20410;-89
2022/07/26 00:45:53;;;;;;;20.83;19.53;;;;;;;;;;5033710;28;20417;-88
2022/07/26 00:48:21;;;;;;;22.30;20.60;;;;;;;;;;5033644;28;20439;-88
2022/07/26 00:50:48;;;;;;;21.53;20.13;;;;;;;;;;5033609;28;20413;-89
2022/07/26 00:53:15;;;;;;;21.00;19.70;;;;;;;;;;5034141;28;20433;-88
2022/07/26 00:55:43;;;;;;;21.83;20.20;;;;;;;;;;5033807;28;20449;-88
2022/07/26 00:58:12;;;;;;;32.87;21.63;;;;;;;;;;5033597;28;20468;-87
2022/07/26 01:00:39;;;;;;;21.97;20.37;;;;;;;;;;5033951;28;20417;-88
2022/07/26 01:03:07;;;;;;;21.60;20.10;;;;;;;;;;5033672;28;20520;-87
2022/07/26 01:05:34;;;;;;;21.37;19.33;;;;;;;;;;5033580;28;20458;-88
2022/07/26 01:08:01;;;;;;;21.10;19.33;;;;;;;;;;5033652;28;20462;-87
2022/07/26 01:10:29;;;;;;;21.10;19.80;;;;;;;;;;5034057;28;20418;-86
2022/07/26 01:12:56;;;;;;;19.97;18.87;;;;;;;;;;5032554;28;20512;-88
2022/07/26 01:15:25;;;;;;;20.47;19.27;;;;;;;;;;5033399;28;20437;-88
2022/07/26 01:17:52;;;;;;;22.13;20.23;;;;;;;;;;5033682;28;20819;-87
2022/07/26 01:20:20;;;;;;;21.47;19.97;;;;;;;;;;5033805;28;20793;-87
2022/07/26 01:22:48;;;;;;;21.20;19.70;;;;;;;;;;5033686;28;20452;-88
2022/07/26 01:25:16;;;;;;;21.53;19.97;;;;;;;;;;5032999;28;20819;-88
2022/07/26 01:27:43;;;;;;;22.07;20.17;;;;;;;;;;5035315;28;20442;-87
2022/07/26 01:30:12;;;;;;;21.77;20.10;;;;;;;;;;5037140;28;20456;-88
2022/07/26 01:32:40;;;;;;;20.50;19.40;;;;;;;;;;5037242;28;20421;-88
2022/07/26 01:35:08;;;;;;;22.73;20.17;;;;;;;;;;5037215;28;20413;-88
2022/07/26 01:37:36;;;;;;;20.83;19.63;;;;;;;;;;5037045;28;20459;-88
2022/07/26 01:40:05;;;;;;;21.67;19.80;;;;;;;;;;5035712;28;20429;-88
2022/07/26 01:42:32;;;;;;;20.83;19.10;;;;;;;;;;5035947;28;20571;-86
2022/07/26 01:45:00;;;;;;;20.80;19.30;;;;;;;;;;5037101;28;20425;-88
2022/07/26 01:47:29;;;;;;;20.33;19.13;;;;;;;;;;5036835;28;20420;-88
2022/07/26 01:49:56;;;;;;;21.23;19.73;;;;;;;;;;5036882;28;20428;-88
2022/07/26 01:52:23;;;;;;;21.20;19.90;;;;;;;;;;5036719;28;20440;-88
2022/07/26 01:54:51;;;;;;;20.97;19.47;;;;;;;;;;5036568;28;20433;-88
2022/07/26 01:57:20;;;;;;;21.67;20.10;;;;;;;;;;5036625;28;20568;-88
2022/07/26 01:59:48;;;;;;;21.40;19.57;;;;;;;;;;5036549;28;20918;-88
2022/07/26 02:02:15;;;;;;;20.33;19.07;;;;;;;;;;5036764;28;20466;-88
2022/07/26 02:04:58;;;;;;;20.80;19.40;;;;;;;;;;5036713;28;20457;-87
2022/07/26 02:07:25;;;;;;;22.00;20.37;;;;;;;;;;5036446;28;20409;-87
2022/07/26 02:09:53;;;;;;;21.17;19.87;;;;;;;;;;5035345;28;20422;-87
2022/07/26 02:12:22;;;;;;;22.73;20.47;;;;;;;;;;5036228;28;20451;-88
2022/07/26 02:14:49;;;;;;;21.43;19.87;;;;;;;;;;5036393;28;20409;-88
2022/07/26 02:17:17;;;;;;;20.50;18.90;;;;;;;;;;5036155;28;20449;-88
2022/07/26 02:19:44;;;;;;;21.67;19.93;;;;;;;;;;5036345;28;20433;-88
2022/07/26 02:22:12;;;;;;;21.13;19.43;;;;;;;;;;5036342;28;20470;-88
2022/07/26 02:24:39;;;;;;;21.53;19.80;;;;;;;;;;5035845;28;20458;-88
2022/07/26 02:27:06;;;;;;;21.80;20.30;;;;;;;;;;5035742;28;20460;-89
2022/07/26 02:29:35;;;;;;;21.50;20.00;;;;;;;;;;5035936;28;20430;-88
2022/07/26 02:32:02;;;;;;;21.23;19.63;;;;;;;;;;5035897;28;20508;-87
2022/07/26 02:34:30;;;;;;;22.07;20.30;;;;;;;;;;5035741;28;20437;-88
2022/07/26 02:36:57;;;;;;;20.67;19.13;;;;;;;;;;5035757;28;20421;-88
2022/07/26 02:39:26;;;;;;;21.60;19.43;;;;;;;;;;5034837;28;20496;-87
2022/07/26 02:41:55;;;;;;;21.40;19.80;;;;;;;;;;5035710;28;20442;-88
2022/07/26 02:44:22;;;;;;;20.60;19.33;;;;;;;;;;5035806;28;20470;-88
2022/07/26 02:46:51;;;;;;;20.37;19.20;;;;;;;;;;5035454;28;20447;-88
2022/07/26 02:49:19;;;;;;;20.27;18.90;;;;;;;;;;5035557;28;20450;-87
2022/07/26 02:51:47;;;;;;;20.70;19.43;;;;;;;;;;5035766;28;20443;-87
2022/07/26 02:54:15;;;;;;;20.90;19.60;;;;;;;;;;5035230;28;20908;-88
2022/07/26 02:56:42;;;;;;;21.00;19.80;;;;;;;;;;5035850;28;20745;-88
2022/07/26 02:59:10;;;;;;;20.73;19.20;;;;;;;;;;5034703;28;20552;-88
2022/07/26 03:01:38;;;;;;;22.03;20.27;;;;;;;;;;5035373;28;20842;-87
2022/07/26 03:04:07;;;;;;;21.47;20.07;;;;;;;;;;5035373;28;20773;-87
2022/07/26 03:06:35;;;;;;;20.47;19.20;;;;;;;;;;5035449;28;20470;-88
2022/07/26 03:09:02;;;;;;;20.77;18.97;;;;;;;;;;5035400;28;20885;-87
2022/07/26 03:11:29;;;;;;;20.93;19.67;;;;;;;;;;5035410;28;20432;-87
2022/07/26 03:13:57;;;;;;;21.07;19.50;;;;;;;;;;5035562;28;20417;-88
2022/07/26 03:16:24;;;;;;;21.13;19.93;;;;;;;;;;5034978;28;20424;-88
2022/07/26 03:18:52;;;;;;;19.70;18.70;;;;;;;;;;5034817;28;20492;-88
2022/07/26 03:21:20;;;;;;;21.13;19.63;;;;;;;;;;5034836;28;20968;-87
2022/07/26 03:23:48;;;;;;;20.30;18.90;;;;;;;;;;5035119;28;20832;-88
2022/07/26 03:26:15;;;;;;;20.70;19.33;;;;;;;;;;5034678;28;20463;-88
2022/07/26 03:28:43;;;;;;;22.70;20.50;;;;;;;;;;5034594;28;20946;-88
2022/07/26 03:31:11;;;;;;;21.13;19.93;;;;;;;;;;5035000;28;20470;-87
2022/07/26 03:33:38;;;;;;;21.23;19.53;;;;;;;;;;5034614;28;20458;-88
2022/07/26 03:36:06;;;;;;;21.67;20.27;;;;;;;;;;5034995;28;20424;-87
2022/07/26 03:38:35;;;;;;;22.20;20.70;;;;;;;;;;5033487;28;20487;-88
2022/07/26 03:41:03;;;;;;;21.53;20.20;;;;;;;;;;5034679;28;20907;-88
2022/07/26 03:43:30;;;;;;;23.03;21.10;;;;;;;;;;5034781;28;20813;-87
2022/07/26 03:45:57;;;;;;;21.47;19.90;;;;;;;;;;5034821;28;20437;-87
2022/07/26 03:48:25;;;;;;;21.70;20.40;;;;;;;;;;5034337;28;20434;-87
2022/07/26 03:50:52;;;;;;;21.20;19.60;;;;;;;;;;5034605;28;20425;-88
2022/07/26 03:53:20;;;;;;;20.70;19.30;;;;;;;;;;5034695;28;20492;-87
2022/07/26 03:58:34;;;;;;;20.97;19.60;;;;;;;;;;5034276;28;20460;-87
2022/07/26 04:01:01;;;;;;;21.23;19.93;;;;;;;;;;5034380;28;20436;-87
2022/07/26 04:03:28;;;;;;;20.80;19.40;;;;;;;;;;5034151;28;20454;-87
2022/07/26 04:05:56;;;;;;;20.50;19.40;;;;;;;;;;5034281;28;20437;-87
2022/07/26 04:08:23;;;;;;;21.03;19.90;;;;;;;;;;5034348;28;20416;-89
2022/07/26 04:10:52;;;;;;;21.97;20.57;;;;;;;;;;5034493;28;20444;-89
2022/07/26 04:13:19;;;;;;;21.00;19.67;;;;;;;;;;5034415;28;20424;-88
2022/07/26 04:15:47;;;;;;;22.17;20.37;;;;;;;;;;5034496;28;20443;-89
2022/07/26 04:18:14;;;;;;;21.30;19.80;;;;;;;;;;5034009;28;20478;-88
2022/07/26 04:20:42;;;;;;;20.20;18.97;;;;;;;;;;5034138;28;20511;-89
2022/07/26 04:23:09;;;;;;;22.80;20.63;;;;;;;;;;5033876;28;20450;-89
2022/07/26 04:25:36;;;;;;;22.07;20.40;;;;;;;;;;5034075;28;20453;-89
2022/07/26 04:28:05;;;;;;;21.50;19.77;;;;;;;;;;5034211;28;20409;-89
2022/07/26 04:30:33;;;;;;;21.43;20.03;;;;;;;;;;5034212;28;20425;-88
2022/07/26 04:33:01;;;;;;;21.47;20.07;;;;;;;;;;5034119;28;20466;-89
2022/07/26 04:35:28;;;;;;;21.40;19.90;;;;;;;;;;5034217;28;20442;-88
2022/07/26 04:37:55;;;;;;;22.13;19.80;;;;;;;;;;5034073;28;20410;-89
2022/07/26 04:40:23;;;;;;;21.83;20.13;;;;;;;;;;5033950;28;20453;-88
2022/07/26 04:42:51;;;;;;;21.20;19.70;;;;;;;;;;5033793;28;20443;-89
2022/07/26 04:45:20;;;;;;;21.87;20.40;;;;;;;;;;5034156;28;20464;-89
2022/07/26 04:47:49;;;;;;;21.07;19.67;;;;;;;;;;5033848;28;20458;-89
2022/07/26 04:50:17;;;;;;;20.83;19.60;;;;;;;;;;5033958;28;20438;-89
2022/07/26 04:52:44;;;;;;;20.70;19.40;;;;;;;;;;5032573;28;20917;-89
2022/07/26 04:55:12;;;;;;;21.07;19.43;;;;;;;;;;5033597;28;21005;-89
2022/07/26 04:57:39;;;;;;;23.43;21.23;;;;;;;;;;5033858;28;20424;-89
2022/07/26 05:00:08;;;;;;;21.97;20.53;;;;;;;;;;5034126;28;20463;-89
2022/07/26 05:02:37;;;;;;;21.90;20.20;;;;;;;;;;5035120;28;20931;-89
2022/07/26 05:05:04;;;;;;;22.13;20.10;;;;;;;;;;5037458;28;20436;-89
2022/07/26 05:07:40;;;;;;;22.10;20.30;;;;;;;;;;5037820;28;20481;-91
2022/07/26 05:10:07;;;;;;;21.70;20.40;;;;;;;;;;5037640;28;20457;-89
2022/07/26 05:12:35;;;;;;;21.67;20.17;;;;;;;;;;5037436;28;20442;-88
2022/07/26 05:15:02;;;;;;;22.27;20.87;;;;;;;;;;5037309;28;20898;-88
2022/07/26 05:17:29;;;;;;;21.63;20.00;;;;;;;;;;5037325;28;20883;-87
2022/07/26 05:19:58;;;;;;;21.93;20.33;;;;;;;;;;5037519;28;20786;-88
2022/07/26 05:22:26;;;;;;;23.37;21.30;;;;;;;;;;5037445;28;20828;-88
2022/07/26 05:24:53;;;;;;;24.77;22.80;;;;;;;;;;5037164;28;20421;-88
2022/07/26 05:27:20;;;;;;;21.90;20.53;;;;;;;;;;5036895;28;20788;-88
2022/07/26 05:29:48;;;;;;;24.83;22.70;;;;;;;;;;5037041;28;20951;-95
2022/07/26 05:32:16;;;;;;;24.23;21.80;;;;;;;;;;5036871;28;20464;-90
2022/07/26 05:34:43;;;;;;;23.97;21.80;;;;;;;;;;5036798;28;20478;-90
2022/07/26 05:37:12;;;;;;;22.03;20.47;;;;;;;;;;5037091;28;20417;-90
2022/07/26 05:39:39;;;;;;;22.90;21.30;;;;;;;;;;5037133;28;20524;-90
2022/07/26 05:42:07;;;;;;;22.43;20.53;;;;;;;;;;5037210;28;20441;-90
2022/07/26 05:44:34;;;;;;;23.57;21.17;;;;;;;;;;5037180;28;20414;-90
2022/07/26 05:47:01;;;;;;;22.00;20.70;;;;;;;;;;5036893;28;20434;-90
2022/07/26 05:49:29;;;;;;;23.40;21.60;;;;;;;;;;5036485;28;20435;-90
2022/07/26 05:51:56;;;;;;;21.40;19.87;;;;;;;;;;5036247;28;20437;-90
2022/07/26 05:54:25;;;;;;;21.60;20.30;;;;;;;;;;5036804;28;20429;-90
2022/07/26 05:56:52;;;;;;;23.37;21.67;;;;;;;;;;5036436;28;20413;-90
2022/07/26 05:59:20;;;;;;;23.77;21.37;;;;;;;;;;5023185;28;20491;-90
2022/07/26 06:01:47;;;;;;;23.23;21.23;;;;;;;;;;5016603;28;20921;-89
2022/07/26 06:04:14;;;;;;;22.77;21.20;;;;;;;;;;5016708;28;20889;-90
2022/07/26 06:06:42;;;;;;;23.40;21.20;;;;;;;;;;5016801;28;20426;-90
2022/07/26 06:09:09;;;;;;;23.30;21.30;;;;;;;;;;5017067;28;20443;-89
2022/07/26 06:11:38;;;;;;;23.73;21.57;;;;;;;;;;5016611;28;20422;-90
2022/07/26 06:14:05;;;;;;;22.73;21.20;;;;;;;;;;5016653;28;20414;-89
2022/07/26 06:16:32;;;;;;;24.43;22.70;;;;;;;;;;5016807;28;20451;-89
2022/07/26 06:19:00;;;;;;;23.70;21.77;;;;;;;;;;5016276;28;20468;-90
2022/07/26 06:21:27;;;;;;;24.03;21.87;;;;;;;;;;5015776;28;20526;-90
2022/07/26 06:23:55;;;;;;;25.23;23.20;;;;;;;;;;5015209;28;20426;-90
2022/07/26 06:26:23;;;;;;;24.40;22.50;;;;;;;;;;5015099;28;20453;-89
2022/07/26 06:28:51;;;;;;;24.13;22.27;;;;;;;;;;5016671;28;20450;-90
2022/07/26 06:31:19;;;;;;;24.93;23.00;;;;;;;;;;5016241;28;20422;-93
2022/07/26 06:33:46;;;;;;;26.73;24.50;;;;;;;;;;5017182;28;20508;-94
2022/07/26 06:36:14;;;;;;;25.20;23.30;;;;;;;;;;5016734;28;20418;-92
2022/07/26 06:38:41;;;;;;;24.70;22.80;;;;;;;;;;5016081;28;20486;-88
2022/07/26 06:41:08;;;;;;;25.13;23.33;;;;;;;;;;5016317;28;20773;-84
2022/07/26 06:43:36;;;;;;;25.33;23.27;;;;;;;;;;5015544;28;20451;-85
2022/07/26 06:46:04;;;;;;;24.83;22.47;;;;;;;;;;5016155;28;20527;-87
2022/07/26 06:48:32;;;;;;;24.90;22.93;;;;;;;;;;5015913;28;20451;-92
2022/07/26 06:50:59;;;;;;;24.70;22.77;;;;;;;;;;5015812;28;20876;-92
2022/07/26 06:53:27;;;;;;;24.27;22.00;;;;;;;;;;5015908;28;20426;-92
2022/07/26 06:55:54;;;;;;;24.93;23.00;;;;;;;;;;5015976;28;20406;-92
2022/07/26 06:58:22;;;;;;;25.20;22.90;;;;;;;;;;5016228;28;20411;-94
2022/07/26 07:00:49;;;;;;;26.90;24.50;;;;;;;;;;5015935;28;20465;-89
2022/07/26 07:03:18;;;;;;;25.73;23.90;;;;;;;;;;5015784;28;20417;-88
2022/07/26 07:05:46;;;;;;;26.63;24.30;;;;;;;;;;5015843;28;20425;-91
2022/07/26 07:08:14;;;;;;;23.90;22.20;;;;;;;;;;5014226;28;20456;-90
2022/07/26 07:10:41;;;;;;;26.07;23.70;;;;;;;;;;5015315;28;20420;-90
2022/07/26 07:13:09;;;;;;;26.30;24.10;;;;;;;;;;5014328;28;20838;-89
2022/07/26 07:15:36;;;;;;;22.70;21.20;;;;;;;;;;5015471;28;20847;-89
2022/07/26 07:18:03;;;;;;;25.17;23.37;;;;;;;;;;5015474;28;20425;-88
2022/07/26 07:20:33;;;;;;;25.07;23.27;;;;;;;;;;5015615;28;20885;-88
2022/07/26 07:23:00;;;;;;;25.07;23.07;;;;;;;;;;5015393;28;20504;-88
2022/07/26 07:25:27;;;;;;;25.17;23.47;;;;;;;;;;5014602;28;20468;-90
2022/07/26 07:27:55;;;;;;;24.40;22.60;;;;;;;;;;5015045;28;20466;-89
2022/07/26 07:30:22;;;;;;;23.23;21.37;;;;;;;;;;5015376;28;20432;-88
2022/07/26 07:32:49;;;;;;;23.90;22.10;;;;;;;;;;5015261;28;20455;-88
2022/07/26 07:35:17;;;;;;;22.87;21.30;;;;;;;;;;5015139;28;20534;-87
2022/07/26 07:37:46;;;;;;;22.27;20.97;;;;;;;;;;5015041;28;20907;-88
2022/07/26 07:40:13;;;;;;;23.13;21.43;;;;;;;;;;5014738;28;20494;-89
2022/07/26 07:42:41;;;;;;;22.83;21.07;;;;;;;;;;5015125;28;20827;-89
2022/07/26 07:45:10;;;;;;;22.90;21.43;;;;;;;;;;5014802;28;20899;-88
2022/07/26 07:47:37;;;;;;;22.70;21.20;;;;;;;;;;5014697;28;20517;-88
2022/07/26 07:50:06;;;;;;;23.13;21.50;;;;;;;;;;5014536;28;20818;-80
2022/07/26 07:52:33;;;;;;;22.73;20.87;;;;;;;;;;5020255;28;20797;-84
2022/07/26 07:55:02;;;;;;;24.87;22.97;;;;;;;;;;5033243;28;20790;-84
2022/07/26 07:57:29;;;;;;;23.07;21.60;;;;;;;;;;5033345;28;20413;-82
2022/07/26 07:59:57;;;;;;;24.33;22.50;;;;;;;;;;5032173;28;20966;-82
2022/07/26 08:02:24;;;;;;;22.73;21.40;;;;;;;;;;5032540;28;20443;-83
2022/07/26 08:04:52;;;;;;;25.07;23.50;;;;;;;;;;5033144;28;20944;-82
2022/07/26 08:07:20;;;;;;;24.60;23.00;;;;;;;;;;5033301;28;20444;-83
2022/07/26 08:09:47;;;;;;;25.37;23.47;;;;;;;;;;5033568;28;20862;-83
2022/07/26 08:12:16;;;;;;;22.80;21.50;;;;;;;;;;5033589;28;20439;-84
2022/07/26 08:14:44;;;;;;;24.87;23.20;;;;;;;;;;5034244;28;20474;-87
2022/07/26 08:17:11;;;;;;;24.60;23.03;;;;;;;;;;5033721;28;20446;-85
2022/07/26 08:19:39;;;;;;;24.23;22.63;;;;;;;;;;5032564;28;20449;-88
2022/07/26 08:22:07;;;;;;;25.90;23.63;;;;;;;;;;5033262;28;20988;-83
2022/07/26 08:24:34;;;;;;;23.57;22.17;;;;;;;;;;5033037;28;20468;-82
2022/07/26 08:27:02;;;;;;;24.40;22.90;;;;;;;;;;5032570;28;20502;-82
2022/07/26 08:29:30;;;;;;;25.33;23.83;;;;;;;;;;5033110;28;20446;-82
2022/07/26 08:31:58;;;;;;;26.97;25.07;;;;;;;;;;5032489;28;20458;-84
2022/07/26 08:34:25;;;;;;;27.00;25.40;;;;;;;;;;5033076;28;20442;-82
2022/07/26 08:36:53;;;;;;;25.63;24.00;;;;;;;;;;5032083;28;20433;-82
2022/07/26 08:39:20;;;;;;;25.40;23.80;;;;;;;;;;5038074;28;20839;-86
2022/07/26 08:41:48;;;;;;;26.33;24.93;;;;;;;;;;5036376;28;20429;-90
2022/07/26 08:44:15;;;;;;;26.23;24.50;;;;;;;;;;5037033;28;20429;-89
2022/07/26 08:46:44;;;;;;;25.60;24.00;;;;;;;;;;5037805;28;20411;-88
2022/07/26 08:49:13;;;;;;;25.50;23.73;;;;;;;;;;5037894;28;20425;-89
2022/07/26 08:51:42;;;;;;;23.67;22.37;;;;;;;;;;5038030;28;20443;-89
2022/07/26 08:54:10;;;;;;;25.87;24.43;;;;;;;;;;5037079;28;20480;-81
2022/07/26 08:56:41;;;;;;;28.83;24.70;;;;;;;;;;5037660;28;20438;-89
2022/07/26 08:59:13;;;;;;;24.67;23.37;;;;;;;;;;5036443;28;20493;-89
2022/07/26 09:01:52;;;;;;;25.30;23.63;;;;;;;;;;5036873;28;20868;-89
2022/07/26 09:04:20;;;;;;;25.23;23.70;;;;;;;;;;5037388;28;20462;-89
2022/07/26 09:07:02;;;;;;;27.60;25.83;;;;;;;;;;5037541;28;20434;-89
2022/07/26 09:09:30;;;;;;;23.90;22.50;;;;;;;;;;5035911;28;20460;-82
2022/07/26 09:11:57;;;;;;;27.07;25.23;;;;;;;;;;5036727;28;20442;-85
2022/07/26 09:14:35;;;;;;;25.80;24.33;;;;;;;;;;5036726;28;20443;-81
2022/07/26 09:17:05;;;;;;;25.10;23.70;;;;;;;;;;5036376;28;20422;-85
2022/07/26 09:19:33;;;;;;;26.43;24.60;;;;;;;;;;5036436;28;20548;-84
2022/07/26 09:22:07;;;;;;;26.40;24.30;;;;;;;;;;5036205;28;20481;-83
2022/07/26 09:24:35;;;;;;;25.00;23.40;;;;;;;;;;5036073;28;20432;-83
2022/07/26 09:27:05;;;;;;;25.17;23.37;;;;;;;;;;5035722;28;20578;-82
2022/07/26 09:29:42;;;;;;;25.63;24.07;;;;;;;;;;5036081;28;20416;-82
2022/07/26 09:32:12;;;;;;;25.60;24.00;;;;;;;;;;5036043;28;20418;-82
2022/07/26 09:34:40;;;;;;;23.20;21.90;;;;;;;;;;5035887;28;20487;-83
2022/07/26 09:37:08;;;;;;;22.40;21.13;;;;;;;;;;5036129;28;20461;-89
2022/07/26 09:39:53;;;;;;;23.30;21.87;;;;;;;;;;5035738;28;20436;-89
2022/07/26 09:42:21;;;;;;;22.90;21.70;;;;;;;;;;5037175;28;20429;-89
2022/07/26 09:44:48;;;;;;;23.33;21.80;;;;;;;;;;5037001;28;20442;-89
2022/07/26 09:47:17;;;;;;;22.10;20.90;;;;;;;;;;5037017;28;20435;-89
2022/07/26 09:49:44;;;;;;;23.53;22.23;;;;;;;;;;5035073;28;20421;-88
2022/07/26 09:52:15;;;;;;;30.73;26.97;;;;;;;;;;5036768;28;20409;-87
2022/07/26 09:54:45;;;;;;;30.67;28.67;;;;;;;;;;5036445;28;20418;-87
2022/07/26 09:57:13;;;;;;;33.10;30.80;;;;;;;;;;5035615;28;20425;-87
2022/07/26 09:59:40;;;;;;;35.00;32.50;;;;;;;;;;5036624;28;20767;-87
2022/07/26 10:02:09;;;;;;;34.13;32.07;;;;;;;;;;5036189;28;20418;-88
2022/07/26 10:04:37;;;;;;;33.53;31.23;;;;;;;;;;5036177;28;20453;-88
2022/07/26 10:07:05;;;;;;;34.10;32.00;;;;;;;;;;5035991;28;20423;-89
2022/07/26 10:09:43;;;;;;;36.87;34.27;;;;;;;;;;5036090;28;20416;-88
2022/07/26 10:12:13;;;;;;;36.60;34.40;;;;;;;;;;5036573;28;20440;-88
2022/07/26 10:14:43;;;;;;;37.53;35.03;;;;;;;;;;5036416;28;20421;-88
2022/07/26 10:17:29;;;;;;;41.57;38.87;;;;;;;;;;5036362;28;20453;-88
2022/07/26 10:20:00;;;;;;;45.33;42.50;;;;;;;;;;5035721;28;20856;-88
2022/07/26 10:22:31;;;;;;;47.27;44.63;;;;;;;;;;5036073;28;20948;-88
2022/07/26 10:24:58;;;;;;;42.97;40.30;;;;;;;;;;5036329;28;20419;-86
2022/07/26 10:27:38;;;;;;;40.20;37.90;;;;;;;;;;5035622;28;20876;-87
2022/07/26 10:30:24;;;;;;;40.87;38.33;;;;;;;;;;5035051;28;20412;-89
2022/07/26 10:32:59;;;;;;;40.27;38.07;;;;;;;;;;5035606;28;20490;-92
2022/07/26 10:35:39;;;;;;;40.83;38.33;;;;;;;;;;5035894;28;20446;-90
2022/07/26 10:38:07;;;;;;;40.90;38.60;;;;;;;;;;5036351;28;20418;-90
2022/07/26 10:40:35;;;;;;;40.27;37.97;;;;;;;;;;5036043;28;20480;-91
2022/07/26 10:43:08;;;;;;;40.20;37.93;;;;;;;;;;5036033;28;20417;-91
2022/07/26 10:45:36;;;;;;;37.30;35.10;;;;;;;;;;5035940;28;20420;-91
2022/07/26 10:48:11;;;;;;;37.90;35.53;;;;;;;;;;5036050;28;20446;-91
2022/07/26 10:50:40;;;;;;;38.17;35.60;;;;;;;;;;5035929;28;20468;-91
2022/07/26 10:53:08;;;;;;;36.40;34.10;;;;;;;;;;5036061;28;20436;-91
2022/07/26 10:55:45;;;;;;;36.20;33.60;;;;;;;;;;5034308;28;20494;-87
2022/07/26 10:58:13;;;;;;;37.53;35.33;;;;;;;;;;5034090;28;20453;-90
2022/07/26 11:00:41;;;;;;;34.20;32.20;;;;;;;;;;5034879;28;20808;-89
2022/07/26 11:03:09;;;;;;;35.00;33.03;;;;;;;;;;5035783;28;20405;-90
2022/07/26 11:05:37;;;;;;;32.57;30.57;;;;;;;;;;5034324;28;20429;-89
2022/07/26 11:08:10;;;;;;;30.83;29.23;;;;;;;;;;5034465;28;20541;-81
2022/07/26 11:10:39;;;;;;;31.43;29.63;;;;;;;;;;5035794;28;20486;-81
2022/07/26 11:13:07;;;;;;;31.70;29.50;;;;;;;;;;5036192;28;20470;-82
2022/07/26 11:15:35;;;;;;;33.27;31.30;;;;;;;;;;5035212;28;20461;-87
2022/07/26 11:18:17;;;;;;;32.40;30.60;;;;;;;;;;5036681;28;20476;-87
2022/07/26 11:20:45;;;;;;;33.93;32.10;;;;;;;;;;5036934;28;20522;-86
2022/07/26 11:23:31;;;;;;;35.80;33.83;;;;;;;;;;5035279;28;20421;-90
2022/07/26 11:26:03;;;;;;;43.47;41.07;;;;;;;;;;5033647;28;20502;-89
2022/07/26 11:28:31;;;;;;;40.83;37.90;;;;;;;;;;5035128;28;20416;-91
2022/07/26 11:30:59;;;;;;;39.37;37.00;;;;;;;;;;5034649;28;20947;-91
2022/07/26 11:33:39;;;;;;;39.67;37.40;;;;;;;;;;5034565;28;20438;-86
2022/07/26 11:36:07;;;;;;;37.90;35.80;;;;;;;;;;5034099;28;20419;-90
2022/07/26 11:38:46;;;;;;;40.10;37.83;;;;;;;;;;5034786;28;20421;-92
2022/07/26 11:41:14;;;;;;;37.07;34.80;;;;;;;;;;5035088;28;20485;-91
2022/07/26 11:43:42;;;;;;;36.53;34.70;;;;;;;;;;5034358;28;20452;-94
2022/07/26 11:46:10;;;;;;;36.53;34.43;;;;;;;;;;5034704;28;20490;-91
2022/07/26 11:48:37;;;;;;;38.07;36.03;;;;;;;;;;5034739;28;20456;-86
2022/07/26 11:51:11;;;;;;;32.40;30.70;;;;;;;;;;5033596;28;20854;-90
2022/07/26 11:53:39;;;;;;;31.63;29.73;;;;;;;;;;5036652;28;20438;-95
2022/07/26 11:56:19;;;;;;;31.50;29.70;;;;;;;;;;5034933;28;20445;-89
2022/07/26 11:58:48;;;;;;;33.10;30.90;;;;;;;;;;5034251;28;20474;-88
2022/07/26 12:01:16;;;;;;;33.53;31.43;;;;;;;;;;5034338;28;20483;-87
2022/07/26 12:03:45;;;;;;;32.13;30.43;;;;;;;;;;5032916;28;20458;-88
2022/07/26 12:06:13;;;;;;;32.20;30.17;;;;;;;;;;5033997;28;20431;-85
2022/07/26 12:08:41;;;;;;;31.20;29.57;;;;;;;;;;5032982;28;20436;-74
2022/07/26 12:11:09;;;;;;;31.30;29.63;;;;;;;;;;5032438;28;20493;-78
2022/07/26 12:13:54;;;;;;;29.07;27.33;;;;;;;;;;5032898;28;20407;-78
2022/07/26 12:16:38;;;;;;;30.57;28.87;;;;;;;;;;5033048;28;20443;-78
2022/07/26 12:19:06;;;;;;;28.93;27.23;;;;;;;;;;5032426;28;20469;-78
2022/07/26 12:21:40;;;;;;;29.07;27.27;;;;;;;;;;5032730;28;20494;-78
2022/07/26 12:24:08;;;;;;;29.63;27.97;;;;;;;;;;5032404;28;20838;-79
2022/07/26 12:26:36;;;;;;;29.67;27.80;;;;;;;;;;5032477;28;20460;-79
2022/07/26 12:32:10;;;;;;;28.50;26.87;;;;;;;;;;5033122;28;20414;-78
2022/07/26 12:34:38;;;;;;;29.57;27.80;;;;;;;;;;5032668;28;20446;-77
2022/07/26 12:37:12;;;;;;;29.77;27.97;;;;;;;;;;5032759;28;20469;-79
2022/07/26 12:39:39;;;;;;;30.90;29.30;;;;;;;;;;5032751;28;20425;-78
2022/07/26 12:42:26;;;;;;;30.13;28.53;;;;;;;;;;5025457;28;20493;-83
2022/07/26 12:44:55;;;;;;;32.60;30.80;;;;;;;;;;5032250;28;20421;-84
2022/07/26 12:47:22;;;;;;;31.80;30.17;;;;;;;;;;5033274;28;20773;-85
2022/07/26 12:49:50;;;;;;;30.63;29.03;;;;;;;;;;5033206;28;20814;-81
2022/07/26 12:52:18;;;;;;;28.70;27.20;;;;;;;;;;5032786;28;20440;-82
2022/07/26 12:54:46;;;;;;;30.90;29.30;;;;;;;;;;5032411;28;20409;-83
2022/07/26 12:57:14;;;;;;;31.43;29.43;;;;;;;;;;5032490;28;20425;-83
2022/07/26 12:59:41;;;;;;;33.07;31.03;;;;;;;;;;5032638;28;20822;-82
2022/07/26 13:02:10;;;;;;;30.63;28.93;;;;;;;;;;5032343;28;20453;-82
2022/07/26 13:04:38;;;;;;;30.70;28.90;;;;;;;;;;5031370;28;20467;-82
2022/07/26 13:07:05;;;;;;;28.33;26.80;;;;;;;;;;5032387;28;20417;-83
2022/07/26 13:09:33;;;;;;;25.27;23.97;;;;;;;;;;5032755;28;20428;-82
2022/07/26 13:12:01;;;;;;;25.50;24.10;;;;;;;;;;5032655;28;20423;-83
2022/07/26 13:14:28;;;;;;;27.27;25.77;;;;;;;;;;5031185;28;20424;-82
2022/07/26 13:16:56;;;;;;;26.90;25.40;;;;;;;;;;5032784;28;20447;-83
2022/07/26 13:19:24;;;;;;;24.40;23.10;;;;;;;;;;5032400;28;20917;-83
2022/07/26 13:21:52;;;;;;;23.40;22.20;;;;;;;;;;5032859;28;20469;-84
2022/07/26 13:24:19;;;;;;;24.50;23.20;;;;;;;;;;5034860;28;20423;-82
2022/07/26 13:26:46;;;;;;;23.43;22.03;;;;;;;;;;5035784;28;20845;-82
2022/07/26 13:29:14;;;;;;;23.50;22.40;;;;;;;;;;5035923;28;20493;-82
2022/07/26 13:31:41;;;;;;;22.27;21.17;;;;;;;;;;5036039;28;20417;-82
2022/07/26 13:34:09;;;;;;;22.70;21.63;;;;;;;;;;5035718;28;20414;-80
2022/07/26 13:36:38;;;;;;;23.93;22.50;;;;;;;;;;5035708;28;20476;-80
2022/07/26 13:39:06;;;;;;;23.87;22.67;;;;;;;;;;5035884;28;20773;-82
2022/07/26 13:41:33;;;;;;;25.13;23.70;;;;;;;;;;5035916;28;20472;-82
2022/07/26 13:44:01;;;;;;;24.57;23.37;;;;;;;;;;5035747;28;20443;-82
2022/07/26 13:46:29;;;;;;;28.53;26.83;;;;;;;;;;5035621;28;20462;-82
2022/07/26 13:48:57;;;;;;;28.10;26.60;;;;;;;;;;5035743;28;20507;-83
2022/07/26 13:51:55;;;;;;;27.03;25.63;;;;;;;;;;5035697;28;20460;-82
2022/07/26 13:54:15;;;;;;;27.73;26.20;;;;;;;;;;5034902;28;20778;-82
2022/07/26 13:56:43;;;;;;;28.40;27.10;;;;;;;;;;5035576;28;20930;-82
2022/07/26 13:59:10;;;;;;;28.77;27.17;;;;;;;;;;5035229;28;20449;-82
2022/07/26 14:01:38;;;;;;;25.13;24.03;;;;;;;;;;5035154;28;20477;-81
2022/07/26 14:04:06;;;;;;;25.53;24.03;;;;;;;;;;5035085;28;20452;-82
2022/07/26 14:06:34;;;;;;;25.03;23.83;;;;;;;;;;5035330;28;20453;-81
2022/07/26 14:09:02;;;;;;;24.70;23.53;;;;;;;;;;5027319;28;20537;-77
2022/07/26 14:11:31;;;;;;;23.60;22.27;;;;;;;;;;5028482;28;20461;-81
2022/07/26 14:13:58;;;;;;;23.47;22.30;;;;;;;;;;5035245;28;20853;-81
2022/07/26 14:16:26;;;;;;;22.53;21.43;;;;;;;;;;5034907;28;20447;-82
2022/07/26 14:18:55;;;;;;;22.00;21.00;;;;;;;;;;5035138;28;20507;-81
2022/07/26 14:21:22;;;;;;;23.87;22.67;;;;;;;;;;5034934;28;20467;-82
2022/07/26 14:23:50;;;;;;;24.13;23.03;;;;;;;;;;5034840;28;20454;-81
2022/07/26 14:26:17;;;;;;;24.40;22.93;;;;;;;;;;5034583;28;20999;-81
2022/07/26 14:28:46;;;;;;;25.13;23.83;;;;;;;;;;5034587;28;20429;-81
2022/07/26 14:31:13;;;;;;;24.57;23.17;;;;;;;;;;5034680;28;20409;-80